sensor_id;sensor_type;location;lat;lon;timestamp;P1;durP1;ratioP1;P2;durP2;ratioP2
62338;SDS011;48368;53.406;6.214;2024-03-22T00:00:21;50.97;;;29.25;;
62338;SDS011;48368;53.406;6.214;2024-03-22T00:02:46;49.13;;;29.05;;
62338;SDS011;48368;53.406;6.214;2024-03-22T00:05:12;54.03;;;30.75;;
62338;SDS011;48368;53.406;6.214;2024-03-22T00:07:39;54.22;;;30.25;;
62338;SDS011;48368;53.406;6.214;2024-03-22T00:10:05;54.58;;;30.27;;
62338;SDS011;48368;53.406;6.214;2024-03-22T00:12:31;56.60;;;30.83;;
62338;SDS011;48368;53.406;6.214;2024-03-22T00:14:57;61.58;;;33.88;;
62338;SDS011;48368;53.406;6.214;2024-03-22T00:17:23;53.00;;;31.38;;
62338;SDS011;48368;53.406;6.214;2024-03-22T00:19:48;55.35;;;31.20;;
62338;SDS011;48368;53.406;6.214;2024-03-22T00:22:14;53.00;;;31.67;;
62338;SDS011;48368;53.406;6.214;2024-03-22T00:24:40;57.45;;;33.10;;
62338;SDS011;48368;53.406;6.214;2024-03-22T00:27:06;52.58;;;30.08;;
62338;SDS011;48368;53.406;6.214;2024-03-22T00:29:31;51.55;;;31.35;;
62338;SDS011;48368;53.406;6.214;2024-03-22T00:32:04;57.50;;;34.35;;
62338;SDS011;48368;53.406;6.214;2024-03-22T00:34:33;58.60;;;33.30;;
62338;SDS011;48368;53.406;6.214;2024-03-22T00:36:59;56.92;;;33.95;;
62338;SDS011;48368;53.406;6.214;2024-03-22T00:39:26;64.20;;;36.05;;
62338;SDS011;48368;53.406;6.214;2024-03-22T00:41:51;56.92;;;32.70;;
62338;SDS011;48368;53.406;6.214;2024-03-22T00:44:17;59.88;;;32.95;;
62338;SDS011;48368;53.406;6.214;2024-03-22T00:46:43;61.42;;;33.95;;
62338;SDS011;48368;53.406;6.214;2024-03-22T00:49:08;63.60;;;34.38;;
62338;SDS011;48368;53.406;6.214;2024-03-22T00:51:34;62.22;;;33.45;;
62338;SDS011;48368;53.406;6.214;2024-03-22T00:54:01;63.10;;;34.28;;
62338;SDS011;48368;53.406;6.214;2024-03-22T00:56:27;64.65;;;35.63;;
62338;SDS011;48368;53.406;6.214;2024-03-22T00:58:52;65.07;;;34.30;;
62338;SDS011;48368;53.406;6.214;2024-03-22T01:01:18;61.80;;;33.63;;
62338;SDS011;48368;53.406;6.214;2024-03-22T01:03:43;63.40;;;34.40;;
62338;SDS011;48368;53.406;6.214;2024-03-22T01:06:09;63.08;;;33.85;;
62338;SDS011;48368;53.406;6.214;2024-03-22T01:08:35;71.57;;;36.75;;
62338;SDS011;48368;53.406;6.214;2024-03-22T01:11:00;65.97;;;35.15;;
62338;SDS011;48368;53.406;6.214;2024-03-22T01:13:28;66.55;;;34.67;;
62338;SDS011;48368;53.406;6.214;2024-03-22T01:15:56;73.78;;;36.25;;
62338;SDS011;48368;53.406;6.214;2024-03-22T01:18:22;71.70;;;35.38;;
62338;SDS011;48368;53.406;6.214;2024-03-22T01:20:47;67.45;;;35.00;;
62338;SDS011;48368;53.406;6.214;2024-03-22T01:23:13;71.53;;;37.08;;
62338;SDS011;48368;53.406;6.214;2024-03-22T01:25:39;73.80;;;34.40;;
62338;SDS011;48368;53.406;6.214;2024-03-22T01:28:04;69.00;;;35.30;;
62338;SDS011;48368;53.406;6.214;2024-03-22T01:30:30;72.30;;;36.15;;
62338;SDS011;48368;53.406;6.214;2024-03-22T01:32:56;72.75;;;36.58;;
62338;SDS011;48368;53.406;6.214;2024-03-22T01:35:21;71.72;;;34.88;;
62338;SDS011;48368;53.406;6.214;2024-03-22T01:37:47;75.60;;;35.75;;
62338;SDS011;48368;53.406;6.214;2024-03-22T01:40:13;80.53;;;35.15;;
62338;SDS011;48368;53.406;6.214;2024-03-22T01:42:39;77.82;;;34.90;;
62338;SDS011;48368;53.406;6.214;2024-03-22T01:45:14;79.13;;;36.58;;
62338;SDS011;48368;53.406;6.214;2024-03-22T01:47:40;79.75;;;35.97;;
62338;SDS011;48368;53.406;6.214;2024-03-22T01:50:06;82.88;;;35.47;;
62338;SDS011;48368;53.406;6.214;2024-03-22T01:52:32;75.40;;;33.95;;
62338;SDS011;48368;53.406;6.214;2024-03-22T01:54:59;76.05;;;33.95;;
62338;SDS011;48368;53.406;6.214;2024-03-22T01:57:24;80.55;;;33.95;;
62338;SDS011;48368;53.406;6.214;2024-03-22T01:59:51;73.38;;;30.88;;
62338;SDS011;48368;53.406;6.214;2024-03-22T02:02:20;73.82;;;33.92;;
62338;SDS011;48368;53.406;6.214;2024-03-22T02:04:49;78.25;;;34.03;;
62338;SDS011;48368;53.406;6.214;2024-03-22T02:07:16;81.50;;;33.92;;
62338;SDS011;48368;53.406;6.214;2024-03-22T02:09:41;69.82;;;32.55;;
62338;SDS011;48368;53.406;6.214;2024-03-22T02:12:08;81.18;;;33.22;;
62338;SDS011;48368;53.406;6.214;2024-03-22T02:14:34;66.97;;;29.77;;
62338;SDS011;48368;53.406;6.214;2024-03-22T02:16:59;77.35;;;31.90;;
62338;SDS011;48368;53.406;6.214;2024-03-22T02:19:25;72.10;;;31.63;;
62338;SDS011;48368;53.406;6.214;2024-03-22T02:21:51;82.68;;;32.88;;
62338;SDS011;48368;53.406;6.214;2024-03-22T02:24:16;71.35;;;32.03;;
62338;SDS011;48368;53.406;6.214;2024-03-22T02:26:42;73.55;;;31.08;;
62338;SDS011;48368;53.406;6.214;2024-03-22T02:29:07;64.38;;;28.10;;
62338;SDS011;48368;53.406;6.214;2024-03-22T02:31:33;69.85;;;31.00;;
62338;SDS011;48368;53.406;6.214;2024-03-22T02:33:58;66.70;;;27.77;;
62338;SDS011;48368;53.406;6.214;2024-03-22T02:36:24;72.45;;;29.70;;
62338;SDS011;48368;53.406;6.214;2024-03-22T02:38:51;68.00;;;29.80;;
62338;SDS011;48368;53.406;6.214;2024-03-22T02:41:16;61.50;;;27.00;;
62338;SDS011;48368;53.406;6.214;2024-03-22T02:43:42;63.08;;;29.15;;
62338;SDS011;48368;53.406;6.214;2024-03-22T02:46:07;62.95;;;27.45;;
62338;SDS011;48368;53.406;6.214;2024-03-22T02:48:33;61.08;;;24.00;;
62338;SDS011;48368;53.406;6.214;2024-03-22T02:51:02;58.40;;;25.85;;
62338;SDS011;48368;53.406;6.214;2024-03-22T02:53:37;55.40;;;24.52;;
62338;SDS011;48368;53.406;6.214;2024-03-22T02:56:03;60.60;;;26.60;;
62338;SDS011;48368;53.406;6.214;2024-03-22T02:58:29;59.03;;;26.67;;
62338;SDS011;48368;53.406;6.214;2024-03-22T03:00:54;57.30;;;25.60;;
62338;SDS011;48368;53.406;6.214;2024-03-22T03:03:20;57.58;;;25.40;;
62338;SDS011;48368;53.406;6.214;2024-03-22T03:05:45;57.80;;;25.50;;
62338;SDS011;48368;53.406;6.214;2024-03-22T03:08:11;62.08;;;26.13;;
62338;SDS011;48368;53.406;6.214;2024-03-22T03:10:39;56.35;;;25.52;;
62338;SDS011;48368;53.406;6.214;2024-03-22T03:13:05;63.03;;;26.73;;
62338;SDS011;48368;53.406;6.214;2024-03-22T03:15:31;63.83;;;27.27;;
62338;SDS011;48368;53.406;6.214;2024-03-22T03:17:56;56.63;;;24.40;;
62338;SDS011;48368;53.406;6.214;2024-03-22T03:20:25;55.95;;;25.40;;
62338;SDS011;48368;53.406;6.214;2024-03-22T03:22:51;64.07;;;27.20;;
62338;SDS011;48368;53.406;6.214;2024-03-22T03:25:17;63.50;;;26.02;;
62338;SDS011;48368;53.406;6.214;2024-03-22T03:27:42;59.30;;;26.02;;
62338;SDS011;48368;53.406;6.214;2024-03-22T03:30:08;54.78;;;24.23;;
62338;SDS011;48368;53.406;6.214;2024-03-22T03:32:34;52.50;;;24.95;;
62338;SDS011;48368;53.406;6.214;2024-03-22T03:35:00;58.53;;;24.75;;
62338;SDS011;48368;53.406;6.214;2024-03-22T03:37:25;54.40;;;25.48;;
62338;SDS011;48368;53.406;6.214;2024-03-22T03:39:51;56.03;;;24.20;;
62338;SDS011;48368;53.406;6.214;2024-03-22T03:42:16;55.17;;;23.92;;
62338;SDS011;48368;53.406;6.214;2024-03-22T03:44:42;55.75;;;24.08;;
62338;SDS011;48368;53.406;6.214;2024-03-22T03:47:07;54.35;;;25.75;;
62338;SDS011;48368;53.406;6.214;2024-03-22T03:49:33;64.35;;;26.25;;
62338;SDS011;48368;53.406;6.214;2024-03-22T03:51:59;49.67;;;23.55;;
62338;SDS011;48368;53.406;6.214;2024-03-22T03:54:25;57.22;;;24.15;;
62338;SDS011;48368;53.406;6.214;2024-03-22T03:56:53;58.13;;;23.73;;
62338;SDS011;48368;53.406;6.214;2024-03-22T03:59:28;55.50;;;23.67;;
62338;SDS011;48368;53.406;6.214;2024-03-22T04:01:54;56.55;;;24.27;;
62338;SDS011;48368;53.406;6.214;2024-03-22T04:04:19;52.83;;;22.25;;
62338;SDS011;48368;53.406;6.214;2024-03-22T04:06:45;59.15;;;23.63;;
62338;SDS011;48368;53.406;6.214;2024-03-22T04:09:10;46.58;;;21.88;;
62338;SDS011;48368;53.406;6.214;2024-03-22T04:11:39;59.40;;;24.85;;
62338;SDS011;48368;53.406;6.214;2024-03-22T04:14:05;54.30;;;21.70;;
62338;SDS011;48368;53.406;6.214;2024-03-22T04:16:32;57.08;;;23.02;;
62338;SDS011;48368;53.406;6.214;2024-03-22T04:18:58;51.38;;;24.33;;
62338;SDS011;48368;53.406;6.214;2024-03-22T04:21:23;62.20;;;23.08;;
62338;SDS011;48368;53.406;6.214;2024-03-22T04:23:49;50.88;;;21.92;;
62338;SDS011;48368;53.406;6.214;2024-03-22T04:26:15;52.00;;;22.33;;
62338;SDS011;48368;53.406;6.214;2024-03-22T04:28:40;59.70;;;23.38;;
62338;SDS011;48368;53.406;6.214;2024-03-22T04:31:07;43.60;;;21.52;;
62338;SDS011;48368;53.406;6.214;2024-03-22T04:33:34;53.28;;;21.65;;
62338;SDS011;48368;53.406;6.214;2024-03-22T04:36:04;50.38;;;21.65;;
62338;SDS011;48368;53.406;6.214;2024-03-22T04:38:30;51.85;;;20.70;;
62338;SDS011;48368;53.406;6.214;2024-03-22T04:40:56;47.67;;;20.55;;
62338;SDS011;48368;53.406;6.214;2024-03-22T04:43:23;49.53;;;20.50;;
62338;SDS011;48368;53.406;6.214;2024-03-22T04:45:49;45.25;;;19.20;;
62338;SDS011;48368;53.406;6.214;2024-03-22T04:48:19;48.15;;;19.08;;
62338;SDS011;48368;53.406;6.214;2024-03-22T04:50:49;37.35;;;18.38;;
62338;SDS011;48368;53.406;6.214;2024-03-22T04:53:19;47.33;;;18.80;;
62338;SDS011;48368;53.406;6.214;2024-03-22T04:55:48;43.97;;;19.02;;
62338;SDS011;48368;53.406;6.214;2024-03-22T04:58:16;44.55;;;18.05;;
62338;SDS011;48368;53.406;6.214;2024-03-22T05:00:42;45.03;;;19.55;;
62338;SDS011;48368;53.406;6.214;2024-03-22T05:03:08;45.50;;;17.42;;
62338;SDS011;48368;53.406;6.214;2024-03-22T05:05:34;42.80;;;18.02;;
62338;SDS011;48368;53.406;6.214;2024-03-22T05:08:00;42.25;;;17.52;;
62338;SDS011;48368;53.406;6.214;2024-03-22T05:10:26;41.85;;;19.48;;
62338;SDS011;48368;53.406;6.214;2024-03-22T05:12:54;45.47;;;18.05;;
62338;SDS011;48368;53.406;6.214;2024-03-22T05:15:22;46.63;;;19.17;;
62338;SDS011;48368;53.406;6.214;2024-03-22T05:17:50;45.72;;;18.10;;
62338;SDS011;48368;53.406;6.214;2024-03-22T05:20:16;42.25;;;17.88;;
62338;SDS011;48368;53.406;6.214;2024-03-22T05:22:47;44.22;;;19.10;;
62338;SDS011;48368;53.406;6.214;2024-03-22T05:25:12;49.00;;;16.98;;
62338;SDS011;48368;53.406;6.214;2024-03-22T05:27:40;48.17;;;17.60;;
62338;SDS011;48368;53.406;6.214;2024-03-22T05:30:07;45.22;;;18.17;;
62338;SDS011;48368;53.406;6.214;2024-03-22T05:32:33;40.38;;;17.92;;
62338;SDS011;48368;53.406;6.214;2024-03-22T05:34:59;36.38;;;15.48;;
62338;SDS011;48368;53.406;6.214;2024-03-22T05:37:24;46.33;;;17.08;;
62338;SDS011;48368;53.406;6.214;2024-03-22T05:39:50;44.67;;;16.70;;
62338;SDS011;48368;53.406;6.214;2024-03-22T05:42:15;41.88;;;15.45;;
62338;SDS011;48368;53.406;6.214;2024-03-22T05:44:41;38.70;;;14.48;;
62338;SDS011;48368;53.406;6.214;2024-03-22T05:47:07;36.72;;;15.48;;
62338;SDS011;48368;53.406;6.214;2024-03-22T05:49:32;42.38;;;16.52;;
62338;SDS011;48368;53.406;6.214;2024-03-22T05:51:58;36.40;;;15.77;;
62338;SDS011;48368;53.406;6.214;2024-03-22T05:54:23;42.08;;;16.48;;
62338;SDS011;48368;53.406;6.214;2024-03-22T05:56:49;41.47;;;16.25;;
62338;SDS011;48368;53.406;6.214;2024-03-22T05:59:14;36.67;;;15.50;;
62338;SDS011;48368;53.406;6.214;2024-03-22T06:01:40;36.28;;;15.60;;
62338;SDS011;48368;53.406;6.214;2024-03-22T06:04:06;38.83;;;15.05;;
62338;SDS011;48368;53.406;6.214;2024-03-22T06:06:32;42.67;;;14.88;;
62338;SDS011;48368;53.406;6.214;2024-03-22T06:09:01;33.28;;;15.60;;
62338;SDS011;48368;53.406;6.214;2024-03-22T06:11:34;35.72;;;14.85;;
62338;SDS011;48368;53.406;6.214;2024-03-22T06:13:59;42.97;;;16.50;;
62338;SDS011;48368;53.406;6.214;2024-03-22T06:16:25;34.75;;;15.65;;
62338;SDS011;48368;53.406;6.214;2024-03-22T06:18:51;34.35;;;16.40;;
62338;SDS011;48368;53.406;6.214;2024-03-22T06:21:21;31.33;;;15.10;;
62338;SDS011;48368;53.406;6.214;2024-03-22T06:23:49;33.63;;;15.07;;
62338;SDS011;48368;53.406;6.214;2024-03-22T06:26:15;35.45;;;14.88;;
62338;SDS011;48368;53.406;6.214;2024-03-22T06:28:41;32.30;;;14.15;;
62338;SDS011;48368;53.406;6.214;2024-03-22T06:31:07;33.85;;;15.35;;
62338;SDS011;48368;53.406;6.214;2024-03-22T06:33:33;28.70;;;14.13;;
62338;SDS011;48368;53.406;6.214;2024-03-22T06:36:08;36.30;;;15.40;;
62338;SDS011;48368;53.406;6.214;2024-03-22T06:38:33;32.67;;;16.00;;
62338;SDS011;48368;53.406;6.214;2024-03-22T06:40:59;36.05;;;15.82;;
62338;SDS011;48368;53.406;6.214;2024-03-22T06:43:25;34.85;;;14.88;;
62338;SDS011;48368;53.406;6.214;2024-03-22T06:45:51;31.23;;;14.18;;
62338;SDS011;48368;53.406;6.214;2024-03-22T06:48:16;30.63;;;13.55;;
62338;SDS011;48368;53.406;6.214;2024-03-22T06:50:42;27.98;;;12.90;;
62338;SDS011;48368;53.406;6.214;2024-03-22T06:53:08;25.50;;;12.25;;
62338;SDS011;48368;53.406;6.214;2024-03-22T06:55:35;25.27;;;12.75;;
62338;SDS011;48368;53.406;6.214;2024-03-22T06:58:01;26.40;;;12.80;;
62338;SDS011;48368;53.406;6.214;2024-03-22T07:00:29;26.70;;;12.68;;
62338;SDS011;48368;53.406;6.214;2024-03-22T07:02:55;25.85;;;12.85;;
62338;SDS011;48368;53.406;6.214;2024-03-22T07:05:21;23.88;;;12.93;;
62338;SDS011;48368;53.406;6.214;2024-03-22T07:07:47;31.08;;;13.60;;
62338;SDS011;48368;53.406;6.214;2024-03-22T07:10:15;28.92;;;13.15;;
62338;SDS011;48368;53.406;6.214;2024-03-22T07:12:40;32.85;;;13.38;;
62338;SDS011;48368;53.406;6.214;2024-03-22T07:15:06;28.20;;;12.65;;
62338;SDS011;48368;53.406;6.214;2024-03-22T07:17:32;29.52;;;13.35;;
62338;SDS011;48368;53.406;6.214;2024-03-22T07:19:59;34.13;;;12.90;;
62338;SDS011;48368;53.406;6.214;2024-03-22T07:22:25;32.55;;;14.15;;
62338;SDS011;48368;53.406;6.214;2024-03-22T07:24:50;32.55;;;13.20;;
62338;SDS011;48368;53.406;6.214;2024-03-22T07:27:16;28.83;;;12.75;;
62338;SDS011;48368;53.406;6.214;2024-03-22T07:29:42;27.15;;;12.23;;
62338;SDS011;48368;53.406;6.214;2024-03-22T07:32:08;26.50;;;11.57;;
62338;SDS011;48368;53.406;6.214;2024-03-22T07:34:34;24.67;;;12.50;;
62338;SDS011;48368;53.406;6.214;2024-03-22T07:37:00;24.55;;;11.98;;
62338;SDS011;48368;53.406;6.214;2024-03-22T07:39:29;24.58;;;12.15;;
62338;SDS011;48368;53.406;6.214;2024-03-22T07:41:55;25.20;;;11.90;;
62338;SDS011;48368;53.406;6.214;2024-03-22T07:44:20;26.15;;;11.27;;
62338;SDS011;48368;53.406;6.214;2024-03-22T07:46:49;32.53;;;13.50;;
62338;SDS011;48368;53.406;6.214;2024-03-22T07:49:14;29.17;;;12.95;;
62338;SDS011;48368;53.406;6.214;2024-03-22T07:51:40;27.58;;;11.52;;
62338;SDS011;48368;53.406;6.214;2024-03-22T07:54:05;23.75;;;12.00;;
62338;SDS011;48368;53.406;6.214;2024-03-22T07:56:31;26.05;;;11.05;;
62338;SDS011;48368;53.406;6.214;2024-03-22T07:58:57;25.70;;;11.48;;
62338;SDS011;48368;53.406;6.214;2024-03-22T08:01:23;26.30;;;11.02;;
62338;SDS011;48368;53.406;6.214;2024-03-22T08:03:49;27.70;;;11.25;;
62338;SDS011;48368;53.406;6.214;2024-03-22T08:06:15;22.52;;;10.60;;
62338;SDS011;48368;53.406;6.214;2024-03-22T08:08:41;23.80;;;11.93;;
62338;SDS011;48368;53.406;6.214;2024-03-22T08:11:07;26.45;;;10.93;;
62338;SDS011;48368;53.406;6.214;2024-03-22T08:13:32;24.08;;;10.75;;
62338;SDS011;48368;53.406;6.214;2024-03-22T08:15:58;19.83;;;10.15;;
62338;SDS011;48368;53.406;6.214;2024-03-22T08:18:23;26.83;;;10.40;;
62338;SDS011;48368;53.406;6.214;2024-03-22T08:20:49;24.13;;;10.77;;
62338;SDS011;48368;53.406;6.214;2024-03-22T08:23:15;18.70;;;10.57;;
62338;SDS011;48368;53.406;6.214;2024-03-22T08:25:42;21.90;;;10.60;;
62338;SDS011;48368;53.406;6.214;2024-03-22T08:28:08;19.08;;;10.23;;
62338;SDS011;48368;53.406;6.214;2024-03-22T08:30:36;19.90;;;9.95;;
62338;SDS011;48368;53.406;6.214;2024-03-22T08:33:02;20.60;;;10.05;;
62338;SDS011;48368;53.406;6.214;2024-03-22T08:35:29;20.73;;;9.73;;
62338;SDS011;48368;53.406;6.214;2024-03-22T08:37:55;23.70;;;10.77;;
62338;SDS011;48368;53.406;6.214;2024-03-22T08:40:21;23.92;;;9.90;;
62338;SDS011;48368;53.406;6.214;2024-03-22T08:42:48;20.58;;;10.70;;
62338;SDS011;48368;53.406;6.214;2024-03-22T08:45:13;25.02;;;10.07;;
62338;SDS011;48368;53.406;6.214;2024-03-22T08:47:41;19.23;;;9.15;;
62338;SDS011;48368;53.406;6.214;2024-03-22T08:50:07;17.25;;;9.70;;
62338;SDS011;48368;53.406;6.214;2024-03-22T08:52:33;22.85;;;9.70;;
62338;SDS011;48368;53.406;6.214;2024-03-22T08:55:00;21.42;;;9.48;;
62338;SDS011;48368;53.406;6.214;2024-03-22T08:57:26;18.35;;;8.43;;
62338;SDS011;48368;53.406;6.214;2024-03-22T08:59:52;19.48;;;9.02;;
62338;SDS011;48368;53.406;6.214;2024-03-22T09:02:17;19.65;;;8.38;;
62338;SDS011;48368;53.406;6.214;2024-03-22T09:04:43;16.92;;;8.57;;
62338;SDS011;48368;53.406;6.214;2024-03-22T09:07:09;17.23;;;8.05;;
62338;SDS011;48368;53.406;6.214;2024-03-22T09:09:34;17.05;;;7.90;;
62338;SDS011;48368;53.406;6.214;2024-03-22T09:12:00;15.15;;;7.68;;
62338;SDS011;48368;53.406;6.214;2024-03-22T09:14:26;14.10;;;7.72;;
62338;SDS011;48368;53.406;6.214;2024-03-22T09:16:51;16.58;;;7.07;;
62338;SDS011;48368;53.406;6.214;2024-03-22T09:19:17;16.73;;;6.72;;
62338;SDS011;48368;53.406;6.214;2024-03-22T09:21:43;12.82;;;6.15;;
62338;SDS011;48368;53.406;6.214;2024-03-22T09:24:08;15.65;;;6.93;;
62338;SDS011;48368;53.406;6.214;2024-03-22T09:26:34;16.92;;;5.72;;
62338;SDS011;48368;53.406;6.214;2024-03-22T09:29:00;12.80;;;6.32;;
62338;SDS011;48368;53.406;6.214;2024-03-22T09:31:26;15.10;;;6.53;;
62338;SDS011;48368;53.406;6.214;2024-03-22T09:33:52;12.43;;;5.95;;
62338;SDS011;48368;53.406;6.214;2024-03-22T09:36:20;10.88;;;5.57;;
62338;SDS011;48368;53.406;6.214;2024-03-22T09:38:46;19.30;;;6.22;;
62338;SDS011;48368;53.406;6.214;2024-03-22T09:41:13;13.77;;;6.00;;
62338;SDS011;48368;53.406;6.214;2024-03-22T09:43:39;11.80;;;5.60;;
62338;SDS011;48368;53.406;6.214;2024-03-22T09:46:05;14.30;;;5.38;;
62338;SDS011;48368;53.406;6.214;2024-03-22T09:48:32;14.75;;;5.38;;
62338;SDS011;48368;53.406;6.214;2024-03-22T09:51:00;15.23;;;4.90;;
62338;SDS011;48368;53.406;6.214;2024-03-22T09:53:26;11.95;;;4.60;;
62338;SDS011;48368;53.406;6.214;2024-03-22T09:55:53;15.48;;;4.40;;
62338;SDS011;48368;53.406;6.214;2024-03-22T09:58:23;14.52;;;4.55;;
62338;SDS011;48368;53.406;6.214;2024-03-22T10:00:50;10.32;;;3.97;;
62338;SDS011;48368;53.406;6.214;2024-03-22T10:03:15;13.10;;;3.90;;
62338;SDS011;48368;53.406;6.214;2024-03-22T10:05:41;13.77;;;3.80;;
62338;SDS011;48368;53.406;6.214;2024-03-22T10:08:07;16.00;;;5.93;;
62338;SDS011;48368;53.406;6.214;2024-03-22T10:10:33;13.90;;;4.10;;
62338;SDS011;48368;53.406;6.214;2024-03-22T10:13:03;10.65;;;4.38;;
62338;SDS011;48368;53.406;6.214;2024-03-22T10:15:30;11.23;;;4.75;;
62338;SDS011;48368;53.406;6.214;2024-03-22T10:17:56;11.27;;;3.83;;
62338;SDS011;48368;53.406;6.214;2024-03-22T10:20:22;9.85;;;3.75;;
62338;SDS011;48368;53.406;6.214;2024-03-22T10:22:48;12.45;;;4.18;;
62338;SDS011;48368;53.406;6.214;2024-03-22T10:25:19;14.10;;;5.35;;
62338;SDS011;48368;53.406;6.214;2024-03-22T10:27:45;13.07;;;4.20;;
62338;SDS011;48368;53.406;6.214;2024-03-22T10:30:11;10.93;;;4.20;;
62338;SDS011;48368;53.406;6.214;2024-03-22T10:32:40;14.57;;;4.30;;
62338;SDS011;48368;53.406;6.214;2024-03-22T10:35:06;12.93;;;4.55;;
62338;SDS011;48368;53.406;6.214;2024-03-22T10:37:35;18.30;;;5.10;;
62338;SDS011;48368;53.406;6.214;2024-03-22T10:40:03;17.58;;;4.55;;
62338;SDS011;48368;53.406;6.214;2024-03-22T10:42:42;17.20;;;4.68;;
62338;SDS011;48368;53.406;6.214;2024-03-22T10:45:09;18.08;;;4.82;;
62338;SDS011;48368;53.406;6.214;2024-03-22T10:47:36;17.92;;;4.28;;
62338;SDS011;48368;53.406;6.214;2024-03-22T10:50:06;23.92;;;5.57;;
62338;SDS011;48368;53.406;6.214;2024-03-22T10:55:11;17.50;;;4.57;;
62338;SDS011;48368;53.406;6.214;2024-03-22T10:57:41;22.15;;;6.05;;
62338;SDS011;48368;53.406;6.214;2024-03-22T11:00:08;17.23;;;5.53;;
62338;SDS011;48368;53.406;6.214;2024-03-22T11:02:37;19.92;;;4.63;;
62338;SDS011;48368;53.406;6.214;2024-03-22T11:05:03;15.70;;;4.55;;
62338;SDS011;48368;53.406;6.214;2024-03-22T11:07:30;16.80;;;4.38;;
62338;SDS011;48368;53.406;6.214;2024-03-22T11:09:56;16.15;;;4.35;;
62338;SDS011;48368;53.406;6.214;2024-03-22T11:12:26;24.42;;;5.13;;
62338;SDS011;48368;53.406;6.214;2024-03-22T11:14:53;16.20;;;4.22;;
62338;SDS011;48368;53.406;6.214;2024-03-22T11:17:19;22.52;;;5.10;;
62338;SDS011;48368;53.406;6.214;2024-03-22T11:19:48;25.70;;;5.35;;
62338;SDS011;48368;53.406;6.214;2024-03-22T11:22:14;26.27;;;6.07;;
62338;SDS011;48368;53.406;6.214;2024-03-22T11:24:40;21.60;;;6.15;;
62338;SDS011;48368;53.406;6.214;2024-03-22T11:27:06;13.02;;;4.00;;
62338;SDS011;48368;53.406;6.214;2024-03-22T11:29:32;19.08;;;4.72;;
62338;SDS011;48368;53.406;6.214;2024-03-22T11:31:59;14.75;;;5.07;;
62338;SDS011;48368;53.406;6.214;2024-03-22T11:34:25;17.60;;;4.32;;
62338;SDS011;48368;53.406;6.214;2024-03-22T11:36:51;16.65;;;4.53;;
62338;SDS011;48368;53.406;6.214;2024-03-22T11:39:18;16.80;;;4.40;;
62338;SDS011;48368;53.406;6.214;2024-03-22T11:41:44;14.02;;;3.88;;
62338;SDS011;48368;53.406;6.214;2024-03-22T11:44:13;11.25;;;3.78;;
62338;SDS011;48368;53.406;6.214;2024-03-22T11:46:39;17.08;;;5.00;;
62338;SDS011;48368;53.406;6.214;2024-03-22T11:49:05;11.90;;;3.60;;
62338;SDS011;48368;53.406;6.214;2024-03-22T11:51:31;10.95;;;3.55;;
62338;SDS011;48368;53.406;6.214;2024-03-22T11:53:56;15.93;;;5.10;;
62338;SDS011;48368;53.406;6.214;2024-03-22T11:56:24;12.73;;;3.97;;
62338;SDS011;48368;53.406;6.214;2024-03-22T11:58:57;11.85;;;3.72;;
62338;SDS011;48368;53.406;6.214;2024-03-22T12:01:23;11.70;;;3.53;;
62338;SDS011;48368;53.406;6.214;2024-03-22T12:03:49;15.15;;;4.05;;
62338;SDS011;48368;53.406;6.214;2024-03-22T12:06:15;10.85;;;4.05;;
62338;SDS011;48368;53.406;6.214;2024-03-22T12:08:41;12.90;;;4.10;;
62338;SDS011;48368;53.406;6.214;2024-03-22T12:11:07;11.07;;;3.55;;
62338;SDS011;48368;53.406;6.214;2024-03-22T12:13:33;11.30;;;4.28;;
62338;SDS011;48368;53.406;6.214;2024-03-22T12:15:59;14.48;;;3.58;;
62338;SDS011;48368;53.406;6.214;2024-03-22T12:18:26;11.98;;;4.18;;
62338;SDS011;48368;53.406;6.214;2024-03-22T12:20:52;12.65;;;4.40;;
62338;SDS011;48368;53.406;6.214;2024-03-22T12:23:17;9.20;;;4.00;;
62338;SDS011;48368;53.406;6.214;2024-03-22T12:25:43;13.52;;;4.10;;
62338;SDS011;48368;53.406;6.214;2024-03-22T12:28:09;15.95;;;4.75;;
62338;SDS011;48368;53.406;6.214;2024-03-22T12:30:34;11.20;;;4.57;;
62338;SDS011;48368;53.406;6.214;2024-03-22T12:33:01;15.18;;;4.45;;
62338;SDS011;48368;53.406;6.214;2024-03-22T12:35:26;20.08;;;4.85;;
62338;SDS011;48368;53.406;6.214;2024-03-22T12:37:52;15.38;;;5.22;;
62338;SDS011;48368;53.406;6.214;2024-03-22T12:40:18;14.32;;;4.63;;
62338;SDS011;48368;53.406;6.214;2024-03-22T12:42:44;15.35;;;4.25;;
62338;SDS011;48368;53.406;6.214;2024-03-22T12:45:09;17.38;;;4.35;;
62338;SDS011;48368;53.406;6.214;2024-03-22T12:47:36;16.60;;;4.68;;
62338;SDS011;48368;53.406;6.214;2024-03-22T12:50:03;20.92;;;4.53;;
62338;SDS011;48368;53.406;6.214;2024-03-22T12:52:29;19.10;;;4.95;;
62338;SDS011;48368;53.406;6.214;2024-03-22T12:54:55;14.70;;;4.13;;
62338;SDS011;48368;53.406;6.214;2024-03-22T12:57:21;15.23;;;4.15;;
62338;SDS011;48368;53.406;6.214;2024-03-22T12:59:46;15.50;;;4.57;;
62338;SDS011;48368;53.406;6.214;2024-03-22T13:02:12;15.98;;;4.35;;
62338;SDS011;48368;53.406;6.214;2024-03-22T13:04:37;15.90;;;4.18;;
62338;SDS011;48368;53.406;6.214;2024-03-22T13:07:03;17.35;;;4.18;;
62338;SDS011;48368;53.406;6.214;2024-03-22T13:09:29;18.52;;;4.45;;
62338;SDS011;48368;53.406;6.214;2024-03-22T13:11:54;19.45;;;4.47;;
62338;SDS011;48368;53.406;6.214;2024-03-22T13:14:20;13.77;;;3.95;;
62338;SDS011;48368;53.406;6.214;2024-03-22T13:16:46;19.55;;;5.95;;
62338;SDS011;48368;53.406;6.214;2024-03-22T13:19:14;14.18;;;4.15;;
62338;SDS011;48368;53.406;6.214;2024-03-22T13:21:40;14.38;;;3.97;;
62338;SDS011;48368;53.406;6.214;2024-03-22T13:24:05;17.08;;;3.95;;
62338;SDS011;48368;53.406;6.214;2024-03-22T13:26:34;18.48;;;4.20;;
62338;SDS011;48368;53.406;6.214;2024-03-22T13:29:00;18.38;;;4.07;;
62338;SDS011;48368;53.406;6.214;2024-03-22T13:31:25;15.20;;;4.35;;
62338;SDS011;48368;53.406;6.214;2024-03-22T13:33:51;20.98;;;5.22;;
62338;SDS011;48368;53.406;6.214;2024-03-22T13:36:17;20.52;;;4.05;;
62338;SDS011;48368;53.406;6.214;2024-03-22T13:38:45;16.38;;;3.78;;
62338;SDS011;48368;53.406;6.214;2024-03-22T13:41:11;16.90;;;4.03;;
62338;SDS011;48368;53.406;6.214;2024-03-22T13:43:36;18.77;;;4.03;;
62338;SDS011;48368;53.406;6.214;2024-03-22T13:46:05;21.77;;;3.88;;
62338;SDS011;48368;53.406;6.214;2024-03-22T13:48:30;20.60;;;3.60;;
62338;SDS011;48368;53.406;6.214;2024-03-22T13:50:57;17.02;;;3.67;;
62338;SDS011;48368;53.406;6.214;2024-03-22T13:53:23;18.83;;;3.72;;
62338;SDS011;48368;53.406;6.214;2024-03-22T13:55:49;19.38;;;3.53;;
62338;SDS011;48368;53.406;6.214;2024-03-22T13:58:15;20.13;;;3.40;;
62338;SDS011;48368;53.406;6.214;2024-03-22T14:00:41;15.45;;;3.15;;
62338;SDS011;48368;53.406;6.214;2024-03-22T14:03:07;22.80;;;4.30;;
62338;SDS011;48368;53.406;6.214;2024-03-22T14:05:35;15.73;;;3.20;;
62338;SDS011;48368;53.406;6.214;2024-03-22T14:08:00;12.60;;;3.35;;
62338;SDS011;48368;53.406;6.214;2024-03-22T14:10:26;20.52;;;4.75;;
62338;SDS011;48368;53.406;6.214;2024-03-22T14:12:53;15.55;;;2.92;;
62338;SDS011;48368;53.406;6.214;2024-03-22T14:15:19;15.43;;;3.67;;
62338;SDS011;48368;53.406;6.214;2024-03-22T14:17:45;19.58;;;3.95;;
62338;SDS011;48368;53.406;6.214;2024-03-22T14:20:11;17.38;;;3.40;;
62338;SDS011;48368;53.406;6.214;2024-03-22T14:22:43;16.83;;;3.67;;